createdAt,value
2019-02-27T00:00:30.645Z,100560.57
2019-02-27T00:03:06.705Z,100562.51
2019-02-27T00:05:38.879Z,100558.35
2019-02-27T00:08:09.425Z,100552.63
2019-02-27T00:10:40.085Z,100555.95
2019-02-27T00:13:11.341Z,100559.61
2019-02-27T00:15:47.366Z,100548.03
2019-02-27T00:18:18.535Z,100546.13
2019-02-27T00:20:50.969Z,100542.88
2019-02-27T00:23:24.170Z,100533.58
2019-02-27T00:25:56.303Z,100531.56
2019-02-27T00:28:25.337Z,100528.30
2019-02-27T00:31:02.575Z,100524.36
2019-02-27T00:33:32.705Z,100523.17
2019-02-27T00:36:05.037Z,100516.80
2019-02-27T00:38:35.613Z,100522.34
2019-02-27T00:41:06.427Z,100524.45
2019-02-27T00:43:35.900Z,100518.33
2019-02-27T00:46:07.395Z,100522.22
2019-02-27T00:48:40.614Z,100515.70
2019-02-27T00:51:12.033Z,100521.70
2019-02-27T00:53:40.966Z,100514.48
2019-02-27T00:56:12.145Z,100516.55
2019-02-27T00:58:41.317Z,100507.84
2019-02-27T01:01:15.132Z,100506.53
2019-02-27T01:03:49.566Z,100501.95
2019-02-27T01:06:20.113Z,100507.10
2019-02-27T01:08:55.654Z,100506.49
2019-02-27T01:11:27.840Z,100511.59
2019-02-27T01:13:57.461Z,100511.64
2019-02-27T01:16:31.672Z,100504.48
2019-02-27T01:19:05.356Z,100502.95
2019-02-27T01:21:36.551Z,100511.81
2019-02-27T01:24:05.760Z,100507.23
2019-02-27T01:26:40.031Z,100500.16
2019-02-27T01:29:10.516Z,100495.13
2019-02-27T01:31:40.320Z,100492.77
2019-02-27T01:34:11.919Z,100492.75
2019-02-27T01:36:43.216Z,100489.61
2019-02-27T01:39:13.685Z,100478.97
2019-02-27T01:41:42.711Z,100482.61
2019-02-27T01:44:13.656Z,100478.08
2019-02-27T01:46:42.670Z,100473.21
2019-02-27T01:49:16.230Z,100479.57
2019-02-27T01:51:45.739Z,100475.90
2019-02-27T01:54:15.805Z,100476.65
2019-02-27T01:56:45.028Z,100476.48
2019-02-27T01:59:17.611Z,100475.29
2019-02-27T02:01:49.915Z,100468.89
2019-02-27T02:04:21.323Z,100463.84
2019-02-27T02:06:52.392Z,100455.41
2019-02-27T02:09:36.628Z,100456.89
2019-02-27T02:12:31.145Z,100460.33
2019-02-27T02:15:37.737Z,100458.31
2019-02-27T02:18:29.130Z,100447.56
2019-02-27T02:21:39.391Z,100453.88
2019-02-27T02:24:42.379Z,100438.69
2019-02-27T02:28:01.684Z,100433.74
2019-02-27T02:30:52.981Z,100436.41
2019-02-27T02:33:36.337Z,100426.20
2019-02-27T02:36:26.356Z,100422.48
2019-02-27T02:39:31.787Z,100420.97
2019-02-27T02:42:16.069Z,100427.26
2019-02-27T02:45:07.907Z,100416.24
2019-02-27T02:48:04.684Z,100423.77
2019-02-27T02:51:32.021Z,100422.37
2019-02-27T02:54:44.718Z,100421.14
2019-02-27T02:57:28.689Z,100417.42
2019-02-27T03:00:22.094Z,100406.36
2019-02-27T03:03:18.582Z,100406.59
2019-02-27T03:06:20.716Z,100401.72
2019-02-27T03:09:17.706Z,100397.36
2019-02-27T03:12:22.050Z,100393.16
2019-02-27T03:15:34.552Z,100391.02
2019-02-27T03:18:31.020Z,100386.78
2019-02-27T03:21:28.776Z,100380.23
2019-02-27T03:24:12.398Z,100373.86
2019-02-27T03:27:02.757Z,100376.00
2019-02-27T03:29:45.000Z,100364.48
2019-02-27T03:32:22.718Z,100364.05
2019-02-27T03:35:29.142Z,100356.07
2019-02-27T03:38:24.844Z,100357.63
2019-02-27T03:41:39.141Z,100367.64
2019-02-27T03:44:56.199Z,100367.67
2019-02-27T03:48:02.117Z,100373.26
2019-02-27T03:50:49.943Z,100370.38
2019-02-27T03:53:58.945Z,100374.09
2019-02-27T03:56:45.061Z,100365.26
2019-02-27T04:00:09.872Z,100367.62
2019-02-27T04:03:19.350Z,100373.09
2019-02-27T04:06:22.377Z,100370.80
2019-02-27T04:09:01.919Z,100368.06
2019-02-27T04:11:33.232Z,100365.02
2019-02-27T04:14:05.106Z,100362.09
2019-02-27T04:16:34.529Z,100368.00
2019-02-27T04:19:05.803Z,100356.70
2019-02-27T04:21:37.104Z,100358.88
2019-02-27T04:24:06.354Z,100360.16
2019-02-27T04:26:41.410Z,100355.72
2019-02-27T04:29:08.517Z,100363.32
2019-02-27T04:31:37.581Z,100363.36
2019-02-27T04:34:06.576Z,100368.59
2019-02-27T04:36:38.251Z,100369.30
2019-02-27T04:39:11.507Z,100378.09
2019-02-27T04:41:41.665Z,100374.30
2019-02-27T04:44:14.270Z,100369.50
2019-02-27T04:46:44.991Z,100368.63
2019-02-27T04:49:15.750Z,100371.61
2019-02-27T04:51:50.478Z,100368.55
2019-02-27T04:54:18.619Z,100370.80
2019-02-27T04:56:48.243Z,100366.68
2019-02-27T04:59:27.509Z,100367.59
2019-02-27T05:02:03.364Z,100372.73
2019-02-27T05:04:35.279Z,100373.88
2019-02-27T05:07:03.404Z,100375.04
2019-02-27T05:09:35.588Z,100382.30
2019-02-27T05:12:07.414Z,100383.34
2019-02-27T05:14:39.657Z,100373.64
2019-02-27T05:17:10.827Z,100372.06
2019-02-27T05:19:40.018Z,100368.58
2019-02-27T05:22:13.333Z,100372.03
2019-02-27T05:24:44.685Z,100371.88
2019-02-27T05:27:21.933Z,100371.58
2019-02-27T05:29:51.005Z,100375.95
2019-02-27T05:32:25.295Z,100377.92
2019-02-27T05:34:55.443Z,100378.23
2019-02-27T05:37:26.707Z,100374.57
2019-02-27T05:39:56.804Z,100368.98
2019-02-27T05:42:29.387Z,100369.59
2019-02-27T05:45:01.981Z,100364.23
2019-02-27T05:47:32.589Z,100366.98
2019-02-27T05:50:03.770Z,100363.50
2019-02-27T05:52:33.001Z,100361.61
2019-02-27T05:55:06.071Z,100364.72
2019-02-27T05:57:35.004Z,100360.08
2019-02-27T06:00:04.344Z,100363.47
2019-02-27T06:02:34.085Z,100361.87
2019-02-27T06:05:03.073Z,100365.46
2019-02-27T06:07:34.335Z,100366.95
2019-02-27T06:10:04.771Z,100366.41
2019-02-27T06:12:33.739Z,100359.25
2019-02-27T06:15:03.094Z,100359.91
2019-02-27T06:17:42.955Z,100348.34
2019-02-27T06:20:07.903Z,100346.05
2019-02-27T06:22:37.496Z,100347.80
2019-02-27T06:25:09.803Z,100350.84
2019-02-27T06:27:41.136Z,100351.45
2019-02-27T06:30:15.091Z,100345.40
2019-02-27T06:32:46.165Z,100351.27
2019-02-27T06:35:15.252Z,100352.61
2019-02-27T06:37:50.497Z,100352.61
2019-02-27T06:40:20.919Z,100347.31
2019-02-27T06:42:53.353Z,100346.97
2019-02-27T06:45:33.508Z,100349.91
2019-02-27T06:48:10.247Z,100350.89
2019-02-27T06:50:39.152Z,100347.77
2019-02-27T06:53:15.524Z,100335.57
2019-02-27T06:55:47.862Z,100338.77
2019-02-27T06:58:17.247Z,100337.86
2019-02-27T07:00:50.285Z,100335.89
2019-02-27T07:03:19.300Z,100341.56
2019-02-27T07:05:51.140Z,100333.33
2019-02-27T07:08:22.632Z,100333.56
2019-02-27T07:10:52.407Z,100334.99
2019-02-27T07:13:22.478Z,100335.42
2019-02-27T07:15:53.095Z,100336.73
2019-02-27T07:18:22.957Z,100328.47
2019-02-27T07:20:55.620Z,100333.57
2019-02-27T07:23:26.387Z,100335.98
2019-02-27T07:26:01.238Z,100336.97
2019-02-27T07:28:32.678Z,100338.41
2019-02-27T07:31:02.818Z,100337.51
2019-02-27T07:33:37.990Z,100337.56
2019-02-27T07:36:11.353Z,100342.78
2019-02-27T07:38:42.662Z,100334.71
2019-02-27T07:41:17.828Z,100333.09
2019-02-27T07:43:44.233Z,100330.81
2019-02-27T07:46:15.641Z,100328.89
2019-02-27T07:48:49.240Z,100335.16
2019-02-27T07:51:23.201Z,100335.20
2019-02-27T07:53:53.816Z,100337.72
2019-02-27T07:56:25.571Z,100335.31
2019-02-27T07:58:56.266Z,100329.30
2019-02-27T08:01:43.511Z,100331.02
2019-02-27T08:04:09.734Z,100329.55
2019-02-27T08:06:41.453Z,100332.85
2019-02-27T08:09:10.798Z,100324.92
2019-02-27T08:11:41.167Z,100326.78
2019-02-27T08:14:12.885Z,100322.08
2019-02-27T08:17:02.784Z,100323.45
2019-02-27T08:19:33.680Z,100319.16
2019-02-27T08:22:05.831Z,100326.13
2019-02-27T08:24:36.321Z,100316.73
2019-02-27T08:27:15.324Z,100314.84
2019-02-27T08:29:45.879Z,100315.52
2019-02-27T08:32:15.885Z,100310.84
2019-02-27T08:34:48.681Z,100314.73
2019-02-27T08:37:20.368Z,100309.59
2019-02-27T08:39:49.898Z,100300.92
2019-02-27T08:42:20.725Z,100294.22
2019-02-27T08:44:53.565Z,100297.77
2019-02-27T08:47:24.366Z,100292.72
2019-02-27T08:49:58.001Z,100291.53
2019-02-27T08:52:27.537Z,100298.44
2019-02-27T08:54:58.588Z,100297.05
2019-02-27T08:57:43.549Z,100291.23
2019-02-27T09:00:17.556Z,100275.42
2019-02-27T09:02:49.163Z,100274.08
2019-02-27T09:05:20.039Z,100264.42
2019-02-27T09:07:52.268Z,100268.38
2019-02-27T09:10:23.329Z,100258.36
2019-02-27T09:13:04.361Z,100264.23
2019-02-27T09:15:26.159Z,100253.70
2019-02-27T09:18:07.062Z,100256.31
2019-02-27T09:20:37.051Z,100250.69
2019-02-27T09:23:06.889Z,100244.86
2019-02-27T09:25:46.769Z,100239.83
2019-02-27T09:28:19.010Z,100241.12
2019-02-27T09:30:50.186Z,100235.12
2019-02-27T09:33:21.251Z,100233.33
2019-02-27T09:35:55.294Z,100229.48
2019-02-27T09:38:25.632Z,100221.20
2019-02-27T09:40:54.831Z,100219.94
2019-02-27T09:43:32.466Z,100215.23
2019-02-27T09:46:02.233Z,100211.31
2019-02-27T09:48:33.430Z,100205.70
2019-02-27T09:51:06.214Z,100192.75
2019-02-27T09:53:36.860Z,100196.44
2019-02-27T09:56:07.855Z,100189.91
2019-02-27T09:58:38.084Z,100141.90
2019-02-27T10:01:35.159Z,100188.09
2019-02-27T10:04:04.714Z,100182.92
2019-02-27T10:06:36.083Z,100180.41
2019-02-27T10:09:06.368Z,100184.39
2019-02-27T10:11:35.728Z,100180.91
2019-02-27T10:14:07.172Z,100177.38
2019-02-27T10:16:45.128Z,100172.09
2019-02-27T10:19:19.742Z,100172.70
2019-02-27T10:22:00.304Z,100169.86
2019-02-27T10:24:36.897Z,100170.49
2019-02-27T10:27:06.173Z,100164.20
2019-02-27T10:29:39.005Z,100170.02
2019-02-27T10:32:10.755Z,100162.34
2019-02-27T10:34:44.366Z,100159.73
2019-02-27T10:37:17.147Z,100156.89
2019-02-27T10:39:48.102Z,100153.25
2019-02-27T10:42:18.981Z,100146.64
2019-02-27T10:44:51.891Z,100150.20
2019-02-27T10:47:22.325Z,100151.81
2019-02-27T10:49:53.118Z,100135.64
2019-02-27T10:52:24.274Z,100134.56
2019-02-27T10:54:55.545Z,100124.18
2019-02-27T10:57:24.805Z,100119.70
2019-02-27T10:59:53.869Z,100100.30
2019-02-27T11:02:29.288Z,100112.31
2019-02-27T11:05:01.550Z,100110.09
2019-02-27T11:07:35.868Z,100096.66
2019-02-27T11:10:07.437Z,100087.39
2019-02-27T11:12:38.442Z,100084.94
2019-02-27T11:15:13.280Z,100082.56
2019-02-27T11:17:46.098Z,100079.32
2019-02-27T11:20:21.042Z,100078.72
2019-02-27T11:22:50.805Z,100072.06
2019-02-27T11:25:23.459Z,100067.77
2019-02-27T11:27:54.248Z,100069.17
2019-02-27T11:30:25.718Z,100063.20
2019-02-27T11:32:57.823Z,100060.98
2019-02-27T11:35:28.175Z,100061.66
2019-02-27T11:37:57.725Z,100047.88
2019-02-27T11:40:29.891Z,100046.42
2019-02-27T11:43:01.203Z,100042.50
2019-02-27T11:45:32.298Z,100029.94
2019-02-27T11:48:02.947Z,100029.19
2019-02-27T11:50:32.351Z,100026.52
2019-02-27T11:53:04.386Z,100018.55
2019-02-27T11:55:34.049Z,100016.31
2019-02-27T11:58:05.511Z,100015.97
2019-02-27T12:00:36.009Z,100008.73
2019-02-27T12:03:12.167Z,99999.00
2019-02-27T12:05:43.444Z,99994.08
2019-02-27T12:08:17.051Z,99992.51
2019-02-27T12:10:50.950Z,99989.30
2019-02-27T12:13:22.848Z,99991.40
2019-02-27T12:15:52.029Z,99982.65
2019-02-27T12:18:24.104Z,99973.33
2019-02-27T12:20:55.300Z,99973.33
2019-02-27T12:23:24.492Z,99967.48
2019-02-27T12:25:54.258Z,99968.22
2019-02-27T12:28:26.499Z,99966.30
2019-02-27T12:31:01.412Z,99961.63
2019-02-27T12:33:31.608Z,99955.11
2019-02-27T12:36:03.253Z,99957.41
2019-02-27T12:38:42.302Z,99954.17
2019-02-27T12:41:11.719Z,99949.02
2019-02-27T12:43:40.710Z,99942.56
2019-02-27T12:46:10.252Z,99931.64
2019-02-27T12:48:40.712Z,99927.05
2019-02-27T12:51:16.982Z,99926.41
2019-02-27T12:53:45.965Z,99910.73
2019-02-27T12:56:18.778Z,99916.98
2019-02-27T12:58:49.401Z,99907.66
2019-02-27T13:01:20.206Z,99903.88
2019-02-27T13:03:52.222Z,99903.88
2019-02-27T13:06:21.570Z,99891.23
2019-02-27T13:08:53.486Z,99891.23
2019-02-27T13:11:23.413Z,99894.95
2019-02-27T13:13:53.117Z,99894.95
2019-02-27T13:16:23.107Z,99884.72
2019-02-27T13:18:56.313Z,99883.21
2019-02-27T13:21:25.681Z,99883.21
2019-02-27T13:23:55.865Z,99881.52
2019-02-27T13:26:26.090Z,99875.61
2019-02-27T13:28:56.512Z,99875.61
2019-02-27T13:31:26.934Z,99864.47
2019-02-27T13:33:58.860Z,99864.06
2019-02-27T13:36:28.348Z,99863.59
2019-02-27T13:38:59.430Z,99855.77
2019-02-27T13:41:31.123Z,99849.09
2019-02-27T13:44:02.511Z,99839.64
2019-02-27T13:46:37.071Z,99842.33
2019-02-27T13:49:11.332Z,99833.77
2019-02-27T13:51:43.819Z,99837.66
2019-02-27T13:54:13.486Z,99831.09
2019-02-27T13:56:42.976Z,99828.63
2019-02-27T13:59:14.035Z,99827.45
2019-02-27T14:01:45.506Z,99827.66
2019-02-27T14:04:21.743Z,99817.68
2019-02-27T14:06:50.753Z,99820.00
2019-02-27T14:09:21.890Z,99810.91
2019-02-27T14:11:59.938Z,99801.34
2019-02-27T14:14:30.144Z,99795.66
2019-02-27T14:17:01.297Z,99794.24
2019-02-27T14:19:36.436Z,99799.70
2019-02-27T14:22:07.486Z,99795.89
2019-02-27T14:24:38.291Z,99793.03
2019-02-27T14:27:12.074Z,99794.17
2019-02-27T14:30:03.448Z,99783.77
2019-02-27T14:32:30.281Z,99785.36
2019-02-27T14:35:00.591Z,99784.33
2019-02-27T14:37:30.820Z,99780.77
2019-02-27T14:40:04.511Z,99780.03
2019-02-27T14:42:32.289Z,99778.08
2019-02-27T14:45:05.779Z,99783.13
2019-02-27T14:47:34.644Z,99777.75
2019-02-27T14:50:04.314Z,99778.47
2019-02-27T14:52:35.089Z,99773.23
2019-02-27T14:55:04.890Z,99771.30
2019-02-27T14:57:35.450Z,99764.37
2019-02-27T15:00:06.648Z,99758.00
2019-02-27T15:02:36.082Z,99758.05
2019-02-27T15:05:08.198Z,99761.33
2019-02-27T15:07:36.398Z,99758.16
2019-02-27T15:10:07.440Z,99754.64
2019-02-27T15:12:37.196Z,99748.08
2019-02-27T15:15:09.456Z,99743.72
2019-02-27T15:17:45.708Z,99737.86
2019-02-27T15:20:17.478Z,99735.70
2019-02-27T15:22:53.674Z,99725.67
2019-02-27T15:25:27.648Z,99731.45
2019-02-27T15:27:58.730Z,99722.33
2019-02-27T15:30:29.277Z,99721.27
2019-02-27T15:33:04.350Z,99715.61
2019-02-27T15:35:35.178Z,99713.48
2019-02-27T15:38:11.359Z,99713.61
2019-02-27T15:40:41.288Z,99707.38
2019-02-27T15:43:17.997Z,99702.00
2019-02-27T15:45:48.820Z,99702.04
2019-02-27T15:48:19.842Z,99703.41
2019-02-27T15:50:49.062Z,99698.89
2019-02-27T15:53:20.830Z,99693.81
2019-02-27T15:55:51.918Z,99693.32
2019-02-27T15:58:28.764Z,99690.50
2019-02-27T16:00:58.806Z,99684.95
2019-02-27T16:03:29.403Z,99682.45
2019-02-27T16:06:05.200Z,99679.43
2019-02-27T16:08:33.357Z,99678.07
2019-02-27T16:11:04.062Z,99674.67
2019-02-27T16:13:38.840Z,99675.67
2019-02-27T16:16:13.469Z,99676.73
2019-02-27T16:18:44.269Z,99674.17
2019-02-27T16:21:14.722Z,99667.47
2019-02-27T16:23:46.267Z,99668.77
2019-02-27T16:26:15.260Z,99665.86
2019-02-27T16:28:48.860Z,99660.20
2019-02-27T16:31:17.345Z,99660.66
2019-02-27T16:33:47.129Z,99657.86
2019-02-27T16:36:17.429Z,99659.53
2019-02-27T16:38:47.125Z,99660.17
2019-02-27T16:41:18.185Z,99655.24
2019-02-27T16:43:49.144Z,99651.00
2019-02-27T16:46:22.882Z,99652.94
2019-02-27T16:48:56.935Z,99654.96
2019-02-27T16:51:26.970Z,99655.55
2019-02-27T16:53:57.776Z,99648.74
2019-02-27T16:56:27.342Z,99648.34
2019-02-27T16:58:59.653Z,99652.27
2019-02-27T17:01:31.030Z,99660.54
2019-02-27T17:04:01.287Z,99656.54
2019-02-27T17:06:31.539Z,99652.28
2019-02-27T17:09:01.341Z,99648.08
2019-02-27T17:11:32.519Z,99647.18
2019-02-27T17:14:05.533Z,99649.34
2019-02-27T17:16:46.716Z,99653.62
2019-02-27T17:19:16.265Z,99653.15
2019-02-27T17:21:49.300Z,99656.54
2019-02-27T17:24:21.852Z,99652.68
2019-02-27T17:26:51.992Z,99657.14
2019-02-27T17:29:22.943Z,99657.78
2019-02-27T17:31:55.579Z,99661.80
2019-02-27T17:34:28.881Z,99656.09
2019-02-27T17:37:06.384Z,99661.73
2019-02-27T17:39:36.078Z,99657.30
2019-02-27T17:42:05.794Z,99672.38
2019-02-27T17:44:41.232Z,99665.69
2019-02-27T17:47:14.335Z,99668.97
2019-02-27T17:49:43.499Z,99675.80
2019-02-27T17:52:14.835Z,99671.91
2019-02-27T17:54:47.211Z,99674.00
2019-02-27T17:57:18.401Z,99674.59
2019-02-27T17:59:50.138Z,99672.06
2019-02-27T18:02:20.828Z,99668.45
2019-02-27T18:04:53.934Z,99662.98
2019-02-27T18:07:34.093Z,99661.20
2019-02-27T18:10:01.175Z,99658.18
2019-02-27T18:12:30.028Z,99651.53
2019-02-27T18:15:00.825Z,99645.02
2019-02-27T18:17:34.941Z,99645.81
2019-02-27T18:20:04.493Z,99640.98
2019-02-27T18:22:36.711Z,99644.55
2019-02-27T18:25:08.715Z,99647.88
2019-02-27T18:27:38.736Z,99652.31
2019-02-27T18:30:08.579Z,99650.84
2019-02-27T18:32:39.920Z,99653.22
2019-02-27T18:35:10.685Z,99659.49
2019-02-27T18:37:44.043Z,99650.09
2019-02-27T18:40:15.672Z,99654.53
2019-02-27T18:42:45.105Z,99616.55
2019-02-27T18:45:20.069Z,99653.79
2019-02-27T18:47:53.379Z,99647.38
2019-02-27T18:50:24.868Z,99648.38
2019-02-27T18:52:55.608Z,99643.09
2019-02-27T18:55:32.148Z,99379.17
2019-02-27T18:58:02.199Z,99638.36
2019-02-27T19:03:26.397Z,99632.67
2019-02-27T19:05:58.140Z,99641.22
2019-02-27T19:08:35.040Z,99634.00
2019-02-27T19:11:05.991Z,99633.55
2019-02-27T19:13:37.501Z,99635.95
2019-02-27T19:16:27.156Z,99630.36
2019-02-27T19:19:00.723Z,99628.22
2019-02-27T19:21:33.751Z,99632.59
2019-02-27T19:24:12.111Z,99636.89
2019-02-27T19:26:44.155Z,99629.60
2019-02-27T19:29:16.103Z,99615.59
2019-02-27T19:31:56.502Z,99615.50
2019-02-27T19:34:25.947Z,99616.52
2019-02-27T19:36:57.753Z,99613.69
2019-02-27T19:39:31.275Z,99615.29
2019-02-27T19:42:04.995Z,99610.55
2019-02-27T19:44:38.788Z,99614.19
2019-02-27T19:47:07.783Z,99613.19
2019-02-27T19:49:41.856Z,99611.69
2019-02-27T19:52:16.044Z,99612.63
2019-02-27T19:54:45.173Z,99606.50
2019-02-27T19:57:14.253Z,99608.16
2019-02-27T19:59:45.993Z,99613.00
2019-02-27T20:02:16.110Z,99609.32
2019-02-27T20:04:46.204Z,99611.95
2019-02-27T20:07:18.640Z,99608.50
2019-02-27T20:09:51.388Z,99602.91
2019-02-27T20:12:20.408Z,99604.52
2019-02-27T20:14:52.275Z,99600.00
2019-02-27T20:17:21.764Z,99595.70
2019-02-27T20:19:57.115Z,99599.05
2019-02-27T20:22:26.682Z,99595.27
2019-02-27T20:24:57.677Z,99596.80
2019-02-27T20:27:30.286Z,99596.70
2019-02-27T20:30:00.666Z,99593.05
2019-02-27T20:32:31.726Z,99589.19
2019-02-27T20:35:02.007Z,99588.26
2019-02-27T20:37:31.093Z,99586.38
2019-02-27T20:40:02.952Z,99580.15
2019-02-27T20:42:32.263Z,99573.12
2019-02-27T20:45:01.239Z,99578.38
2019-02-27T20:47:30.749Z,99578.76
2019-02-27T20:50:00.626Z,99568.49
2019-02-27T20:52:29.673Z,99576.52
2019-02-27T20:55:00.112Z,99571.51
2019-02-27T20:57:34.671Z,99568.71
2019-02-27T21:00:08.242Z,99566.34
2019-02-27T21:02:37.461Z,99565.77
2019-02-27T21:05:10.265Z,99565.41
2019-02-27T21:07:39.516Z,99558.08
2019-02-27T21:10:19.876Z,99558.16
2019-02-27T21:12:54.001Z,99556.10
2019-02-27T21:15:18.222Z,99556.48
2019-02-27T21:17:50.216Z,99555.70
2019-02-27T21:20:21.225Z,99554.59
2019-02-27T21:22:55.678Z,99552.98
2019-02-27T21:25:30.803Z,99552.98
2019-02-27T21:28:00.057Z,99548.06
2019-02-27T21:30:30.828Z,99544.59
2019-02-27T21:33:00.238Z,99550.23
2019-02-27T21:35:30.047Z,99547.84
2019-02-27T21:38:03.106Z,99543.58
2019-02-27T21:40:36.121Z,99553.38
2019-02-27T21:43:07.289Z,99555.72
2019-02-27T21:45:38.521Z,99554.68
2019-02-27T21:48:08.521Z,99554.34
2019-02-27T21:50:39.937Z,99552.28
2019-02-27T21:53:11.071Z,99552.28
2019-02-27T21:55:44.678Z,99550.01
2019-02-27T21:58:20.307Z,99543.23
2019-02-27T22:00:48.992Z,99544.81
2019-02-27T22:03:19.014Z,99539.84
2019-02-27T22:05:52.562Z,99538.95
2019-02-27T22:08:21.091Z,99528.36
2019-02-27T22:10:53.557Z,99541.88
2019-02-27T22:13:33.132Z,99540.19
2019-02-27T22:16:02.693Z,99532.01
2019-02-27T22:18:33.690Z,99541.36
2019-02-27T22:21:04.572Z,99533.64
2019-02-27T22:23:36.170Z,99535.22
2019-02-27T22:26:07.852Z,99535.00
2019-02-27T22:28:37.408Z,99537.30
2019-02-27T22:31:08.244Z,99534.59
2019-02-27T22:33:40.358Z,99534.19
2019-02-27T22:36:12.729Z,99532.23
2019-02-27T22:38:43.020Z,99537.94
2019-02-27T22:41:25.283Z,99540.97
2019-02-27T22:44:03.403Z,99533.39
2019-02-27T22:46:35.469Z,99534.83
2019-02-27T22:49:05.145Z,99528.45
2019-02-27T22:51:45.271Z,99523.23
2019-02-27T22:54:15.276Z,99525.04
2019-02-27T22:56:50.223Z,99523.45
2019-02-27T22:59:17.413Z,99522.36
2019-02-27T23:01:50.998Z,99519.91
2019-02-27T23:04:25.700Z,99519.33
2019-02-27T23:06:55.198Z,99524.12
2019-02-27T23:09:26.568Z,99512.02
2019-02-27T23:11:57.622Z,99514.41
2019-02-27T23:14:28.475Z,99519.46
2019-02-27T23:17:02.237Z,99524.42
2019-02-27T23:19:31.556Z,99519.33
2019-02-27T23:22:02.170Z,99515.09
2019-02-27T23:24:31.619Z,99517.34
2019-02-27T23:27:06.958Z,99520.53
2019-02-27T23:29:39.994Z,99518.59
2019-02-27T23:32:11.534Z,99511.86
2019-02-27T23:34:41.726Z,99504.67
2019-02-27T23:37:12.971Z,99512.02
2019-02-27T23:39:45.800Z,99511.20
2019-02-27T23:42:18.173Z,99506.14
2019-02-27T23:44:48.379Z,99500.66
2019-02-27T23:47:17.882Z,99498.12
2019-02-27T23:49:49.970Z,99497.40
2019-02-27T23:52:30.298Z,99500.11
2019-02-27T23:54:59.766Z,99495.33
2019-02-27T23:57:32.712Z,99496.39
